createdAt,value
2019-05-12T00:01:58.605Z,8.43
2019-05-12T00:04:49.689Z,9.77
2019-05-12T00:07:41.018Z,13.03
2019-05-12T00:10:32.530Z,14.23
2019-05-12T00:13:23.953Z,13.10
2019-05-12T00:16:15.174Z,10.67
2019-05-12T00:19:09.069Z,12.53
2019-05-12T00:21:59.863Z,16.20
2019-05-12T00:24:51.325Z,13.37
2019-05-12T00:27:42.710Z,11.50
2019-05-12T00:30:42.069Z,9.53
2019-05-12T00:33:33.728Z,10.70
2019-05-12T00:36:25.018Z,18.93
2019-05-12T00:39:18.905Z,11.67
2019-05-12T00:42:09.425Z,11.47
2019-05-12T00:45:01.159Z,14.17
2019-05-12T00:47:53.672Z,11.70
2019-05-12T00:50:45.256Z,14.13
2019-05-12T00:53:40.876Z,15.17
2019-05-12T00:56:30.736Z,10.07
2019-05-12T00:59:22.203Z,10.53
2019-05-12T01:02:13.350Z,10.73
2019-05-12T01:05:05.387Z,11.80
2019-05-12T01:07:58.252Z,11.73
2019-05-12T01:10:50.266Z,15.83
2019-05-12T01:13:41.787Z,15.33
2019-05-12T01:16:33.516Z,10.30
2019-05-12T01:19:24.830Z,15.30
2019-05-12T01:22:18.706Z,14.27
2019-05-12T01:25:11.028Z,11.33
2019-05-12T01:28:02.779Z,12.93
2019-05-12T01:30:58.177Z,15.23
2019-05-12T01:33:49.816Z,12.90
2019-05-12T01:36:41.182Z,10.63
2019-05-12T01:39:32.782Z,14.03
2019-05-12T01:42:24.374Z,13.03
2019-05-12T01:45:17.986Z,14.57
2019-05-12T01:48:09.610Z,14.43
2019-05-12T01:51:00.983Z,13.33
2019-05-12T01:53:52.422Z,13.03
2019-05-12T01:56:44.174Z,12.83
2019-05-12T01:59:38.011Z,10.90
2019-05-12T02:02:29.851Z,10.47
2019-05-12T02:05:22.462Z,11.13
2019-05-12T02:08:19.034Z,12.90
2019-05-12T02:11:37.843Z,8.63
2019-05-12T02:14:28.691Z,12.37
2019-05-12T02:17:20.903Z,14.43
2019-05-12T02:20:13.571Z,13.47
2019-05-12T02:23:05.222Z,10.80
2019-05-12T02:25:58.570Z,14.07
2019-05-12T02:28:50.465Z,11.73
2019-05-12T02:31:41.676Z,13.90
2019-05-12T02:34:34.976Z,9.90
2019-05-12T02:37:26.688Z,13.23
2019-05-12T02:40:19.195Z,11.13
2019-05-12T02:43:10.910Z,11.67
2019-05-12T02:46:04.757Z,18.47
2019-05-12T02:48:57.062Z,9.43
2019-05-12T02:51:49.318Z,9.70
2019-05-12T02:54:51.938Z,12.33
2019-05-12T02:57:35.921Z,10.97
2019-05-12T03:00:27.436Z,11.20
2019-05-12T03:03:24.893Z,15.17
2019-05-12T03:06:15.268Z,9.03
2019-05-12T03:09:09.438Z,11.60
2019-05-12T03:12:05.842Z,11.43
2019-05-12T03:14:55.972Z,9.30
2019-05-12T03:17:47.315Z,8.57
2019-05-12T03:20:39.073Z,15.43
2019-05-12T03:23:30.712Z,10.47
2019-05-12T03:26:24.648Z,14.27
2019-05-12T03:29:16.403Z,12.73
2019-05-12T03:32:08.939Z,11.20
2019-05-12T03:35:00.836Z,9.10
2019-05-12T03:37:54.769Z,12.63
2019-05-12T03:40:45.530Z,11.20
2019-05-12T03:43:37.134Z,15.97
2019-05-12T03:46:28.500Z,17.57
2019-05-12T03:49:24.242Z,11.80
2019-05-12T03:52:15.265Z,11.90
2019-05-12T03:55:26.275Z,17.67
2019-05-12T03:58:00.289Z,21.37
2019-05-12T04:00:55.194Z,17.80
2019-05-12T04:03:45.284Z,18.30
2019-05-12T04:06:37.348Z,23.13
2019-05-12T04:09:28.679Z,20.13
2019-05-12T04:12:19.946Z,18.07
2019-05-12T04:15:11.299Z,24.77
2019-05-12T04:18:05.530Z,25.43
2019-05-12T04:20:55.828Z,12.37
2019-05-12T04:23:47.160Z,13.43
2019-05-12T04:26:38.704Z,16.27
2019-05-12T04:29:30.260Z,16.93
2019-05-12T04:32:24.656Z,13.70
2019-05-12T04:35:15.131Z,17.87
2019-05-12T04:38:06.731Z,17.10
2019-05-12T04:40:57.919Z,14.17
2019-05-12T04:43:49.140Z,17.27
2019-05-12T04:46:40.692Z,11.57
2019-05-12T04:49:34.579Z,10.97
2019-05-12T04:52:25.463Z,10.43
2019-05-12T04:55:17.613Z,13.33
2019-05-12T04:58:08.995Z,8.50
2019-05-12T05:01:00.443Z,16.90
2019-05-12T05:03:54.550Z,11.53
2019-05-12T05:06:45.242Z,11.73
2019-05-12T05:09:38.018Z,16.07
2019-05-12T05:12:29.607Z,11.43
2019-05-12T05:15:21.263Z,14.37
2019-05-12T05:18:13.380Z,10.10
2019-05-12T05:21:04.946Z,8.70
2019-05-12T05:23:56.655Z,12.83
2019-05-12T05:26:48.829Z,7.60
2019-05-12T05:29:40.159Z,12.97
2019-05-12T05:32:33.739Z,10.13
2019-05-12T05:35:28.986Z,10.17
2019-05-12T05:38:20.691Z,12.47
2019-05-12T05:41:13.252Z,10.60
2019-05-12T05:44:04.585Z,12.07
2019-05-12T05:46:56.835Z,6.93
2019-05-12T05:49:49.191Z,10.47
2019-05-12T05:52:40.926Z,11.17
2019-05-12T05:55:34.468Z,7.90
2019-05-12T05:58:26.282Z,8.70
2019-05-12T06:01:18.078Z,6.50
2019-05-12T06:04:09.504Z,8.83
2019-05-12T06:07:01.175Z,6.17
2019-05-12T06:09:53.687Z,9.30
2019-05-12T06:12:50.686Z,8.00
2019-05-12T06:15:40.844Z,7.60
2019-05-12T06:18:33.302Z,6.50
2019-05-12T06:21:29.177Z,8.70
2019-05-12T06:24:20.014Z,15.97
2019-05-12T06:27:16.243Z,10.13
2019-05-12T06:30:06.265Z,4.57
2019-05-12T06:32:58.134Z,8.13
2019-05-12T06:35:49.362Z,9.93
2019-05-12T06:38:40.837Z,6.53
2019-05-12T06:41:33.850Z,9.87
2019-05-12T06:44:25.353Z,8.47
2019-05-12T06:47:17.624Z,2.87
2019-05-12T06:50:10.199Z,5.93
2019-05-12T06:53:01.610Z,2.93
2019-05-12T06:55:54.035Z,2.20
2019-05-12T06:58:45.785Z,3.80
2019-05-12T07:01:37.138Z,3.73
2019-05-12T07:04:28.590Z,5.30
2019-05-12T07:07:20.045Z,2.77
2019-05-12T07:10:26.832Z,3.83
2019-05-12T07:13:06.133Z,6.77
2019-05-12T07:16:19.096Z,2.37
2019-05-12T07:19:16.130Z,1.20
2019-05-12T07:22:00.888Z,2.63
2019-05-12T07:24:54.731Z,2.60
2019-05-12T07:27:53.622Z,3.07
2019-05-12T07:30:38.729Z,4.40
2019-05-12T07:33:32.897Z,3.30
2019-05-12T07:36:24.262Z,2.53
2019-05-12T07:39:18.049Z,2.57
2019-05-12T07:42:10.447Z,3.20
2019-05-12T07:45:04.553Z,3.80
2019-05-12T07:47:59.420Z,6.43
2019-05-12T07:50:50.386Z,4.90
2019-05-12T07:53:46.920Z,5.80
2019-05-12T07:56:35.863Z,1.90
2019-05-12T07:59:35.692Z,2.23
2019-05-12T08:02:23.282Z,4.13
2019-05-12T08:05:19.785Z,1.23
2019-05-12T08:08:10.794Z,2.80
2019-05-12T08:11:04.466Z,2.63
2019-05-12T08:13:55.183Z,2.30
2019-05-12T08:16:46.664Z,3.30
2019-05-12T08:19:38.647Z,1.97
2019-05-12T08:22:29.965Z,9.67
2019-05-12T08:25:24.731Z,1.30
2019-05-12T08:28:18.321Z,1.43
2019-05-12T08:31:07.421Z,2.00
2019-05-12T08:33:58.743Z,2.57
2019-05-12T08:36:53.056Z,2.10
2019-05-12T08:39:44.268Z,5.30
2019-05-12T08:42:36.168Z,4.70
2019-05-12T08:45:34.014Z,1.40
2019-05-12T08:48:24.820Z,2.40
2019-05-12T08:51:19.807Z,2.70
2019-05-12T08:54:08.490Z,6.30
2019-05-12T08:57:01.218Z,3.43
2019-05-12T09:00:02.145Z,6.07
2019-05-12T09:02:50.535Z,6.43
2019-05-12T09:05:40.345Z,8.43
2019-05-12T09:08:37.843Z,3.73
2019-05-12T09:11:26.926Z,4.50
2019-05-12T09:14:18.365Z,9.53
2019-05-12T09:17:09.900Z,2.60
2019-05-12T09:20:06.064Z,2.77
2019-05-12T09:23:00.587Z,3.33
2019-05-12T09:25:48.416Z,4.27
2019-05-12T09:28:47.312Z,7.47
2019-05-12T09:31:33.654Z,5.77
2019-05-12T09:34:25.478Z,1.87
2019-05-12T09:37:17.277Z,8.10
2019-05-12T09:40:08.769Z,4.40
2019-05-12T09:43:05.228Z,5.90
2019-05-12T09:45:56.451Z,2.60
2019-05-12T09:48:52.061Z,1.80
2019-05-12T09:51:42.701Z,5.57
2019-05-12T09:54:40.273Z,2.43
2019-05-12T09:57:26.271Z,2.67
2019-05-12T10:00:18.209Z,3.33
2019-05-12T10:03:09.676Z,1.87
2019-05-12T10:06:03.570Z,2.63
2019-05-12T10:08:54.908Z,6.17
2019-05-12T10:11:53.825Z,4.10
2019-05-12T10:14:45.650Z,2.63
2019-05-12T10:17:34.033Z,17.80
2019-05-12T10:20:29.225Z,14.27
2019-05-12T10:23:22.665Z,4.67
2019-05-12T10:26:14.575Z,3.53
2019-05-12T10:29:16.521Z,6.10
2019-05-12T10:31:58.606Z,1.70
2019-05-12T10:34:51.207Z,5.07
2019-05-12T10:37:43.734Z,3.67
2019-05-12T10:40:36.279Z,1.77
2019-05-12T10:43:27.905Z,2.63
2019-05-12T10:46:26.869Z,3.30
2019-05-12T10:49:13.926Z,3.47
2019-05-12T10:52:07.625Z,1.97
2019-05-12T10:55:00.256Z,5.27
2019-05-12T10:57:52.865Z,1.10
2019-05-12T11:00:45.178Z,2.93
2019-05-12T11:03:42.167Z,1.97
2019-05-12T11:06:30.550Z,6.37
2019-05-12T11:09:27.394Z,4.70
2019-05-12T11:12:19.163Z,8.87
2019-05-12T11:15:08.535Z,2.27
2019-05-12T11:18:11.846Z,4.73
2019-05-12T11:21:04.053Z,5.70
2019-05-12T11:23:55.655Z,3.83
2019-05-12T11:26:47.210Z,2.63
2019-05-12T11:29:46.042Z,4.37
2019-05-12T11:32:34.708Z,4.00
2019-05-12T11:35:24.594Z,4.20
2019-05-12T11:38:16.204Z,4.97
2019-05-12T11:41:10.030Z,2.33
2019-05-12T11:44:03.982Z,3.37
2019-05-12T11:46:55.278Z,1.73
2019-05-12T11:49:46.781Z,6.67
2019-05-12T11:52:38.336Z,1.93
2019-05-12T11:55:31.839Z,1.97
2019-05-12T11:58:23.683Z,4.43
2019-05-12T12:01:16.967Z,7.60
2019-05-12T12:04:08.417Z,5.50
2019-05-12T12:06:59.933Z,4.80
2019-05-12T12:09:56.269Z,3.10
2019-05-12T12:12:49.117Z,4.37
2019-05-12T12:15:37.977Z,3.30
2019-05-12T12:18:29.561Z,5.87
2019-05-12T12:21:20.849Z,4.60
2019-05-12T12:24:13.240Z,3.83
2019-05-12T12:27:04.777Z,2.47
2019-05-12T12:29:56.366Z,5.43
2019-05-12T12:32:50.418Z,2.03
2019-05-12T12:35:40.359Z,5.53
2019-05-12T12:38:33.469Z,9.30
2019-05-12T12:41:24.904Z,3.80
2019-05-12T12:44:16.899Z,8.20
2019-05-12T12:47:09.577Z,3.03
2019-05-12T12:50:01.362Z,1.83
2019-05-12T12:52:54.522Z,4.73
2019-05-12T12:55:46.137Z,5.23
2019-05-12T12:58:37.588Z,3.40
2019-05-12T13:01:32.682Z,3.83
2019-05-12T13:04:24.708Z,4.67
2019-05-12T13:07:15.563Z,6.53
2019-05-12T13:10:09.430Z,4.07
2019-05-12T13:13:03.413Z,2.43
2019-05-12T13:15:53.668Z,3.20
2019-05-12T13:18:45.311Z,4.83
2019-05-12T13:21:36.660Z,5.83
2019-05-12T13:24:28.037Z,4.43
2019-05-12T13:27:25.174Z,4.20
2019-05-12T13:30:20.172Z,6.87
2019-05-12T13:33:08.725Z,4.40
2019-05-12T13:35:59.350Z,3.83
2019-05-12T13:38:50.694Z,3.13
2019-05-12T13:41:43.718Z,6.10
2019-05-12T13:44:36.409Z,2.40
2019-05-12T13:47:29.158Z,5.80
2019-05-12T13:50:26.096Z,3.57
2019-05-12T13:53:14.918Z,3.07
2019-05-12T13:56:06.478Z,3.77
2019-05-12T13:58:58.049Z,4.80
2019-05-12T14:01:49.339Z,2.43
2019-05-12T14:04:40.983Z,3.20
2019-05-12T14:07:34.384Z,3.50
2019-05-12T14:10:25.640Z,6.07
2019-05-12T14:13:17.830Z,7.67
2019-05-12T14:16:09.403Z,2.73
2019-05-12T14:19:00.710Z,8.07
2019-05-12T14:21:54.244Z,7.33
2019-05-12T14:24:46.958Z,3.13
2019-05-12T14:27:38.986Z,4.17
2019-05-12T14:30:33.670Z,2.23
2019-05-12T14:33:29.796Z,4.73
2019-05-12T14:36:22.041Z,4.10
2019-05-12T14:39:13.348Z,2.70
2019-05-12T14:42:05.298Z,5.47
2019-05-12T14:44:56.893Z,4.90
2019-05-12T14:47:48.481Z,3.93
2019-05-12T14:50:39.871Z,2.53
2019-05-12T14:53:33.037Z,3.00
2019-05-12T14:56:24.490Z,8.07
2019-05-12T14:59:15.909Z,3.03
2019-05-12T15:02:07.939Z,2.73
2019-05-12T15:05:00.158Z,5.57
2019-05-12T15:07:56.483Z,5.70
2019-05-12T15:10:45.440Z,3.50
2019-05-12T15:13:36.809Z,6.17
2019-05-12T15:16:31.858Z,3.67
2019-05-12T15:19:27.818Z,3.43
2019-05-12T15:22:14.936Z,5.23
2019-05-12T15:25:07.265Z,5.03
2019-05-12T15:27:58.604Z,3.37
2019-05-12T15:30:50.901Z,6.30
2019-05-12T15:33:44.021Z,6.63
2019-05-12T15:36:35.562Z,5.13
2019-05-12T15:39:27.116Z,4.07
2019-05-12T15:42:19.132Z,5.50
2019-05-12T15:45:12.464Z,4.43
2019-05-12T15:48:04.207Z,5.07
2019-05-12T15:50:59.534Z,4.60
2019-05-12T15:53:49.095Z,5.07
2019-05-12T15:56:40.393Z,9.77
2019-05-12T15:59:34.425Z,9.67
2019-05-12T16:02:25.569Z,5.33
2019-05-12T16:05:20.170Z,2.63
2019-05-12T16:08:10.501Z,3.97
2019-05-12T16:11:04.849Z,8.13
2019-05-12T16:13:59.284Z,3.97
2019-05-12T16:16:48.230Z,7.83
2019-05-12T16:19:39.540Z,4.13
2019-05-12T16:22:38.837Z,6.10
2019-05-12T16:25:27.346Z,3.77
2019-05-12T16:28:22.920Z,5.27
2019-05-12T16:31:10.667Z,4.37
2019-05-12T16:34:05.872Z,5.97
2019-05-12T16:36:55.697Z,4.87
2019-05-12T16:39:47.857Z,6.00
2019-05-12T16:42:40.807Z,5.10
2019-05-12T16:45:34.079Z,4.13
2019-05-12T16:48:32.865Z,7.33
2019-05-12T16:51:18.580Z,7.60
2019-05-12T16:54:10.567Z,3.93
2019-05-12T16:57:06.358Z,4.27
2019-05-12T17:00:02.475Z,10.73
2019-05-12T17:02:53.709Z,2.63
2019-05-12T17:05:42.177Z,2.13
2019-05-12T17:08:34.408Z,3.23
2019-05-12T17:11:30.668Z,3.47
2019-05-12T17:14:19.977Z,5.40
2019-05-12T17:17:11.567Z,4.37
2019-05-12T17:20:04.530Z,4.20
2019-05-12T17:22:59.897Z,5.47
2019-05-12T17:25:51.302Z,3.13
2019-05-12T17:28:43.612Z,3.33
2019-05-12T17:31:36.291Z,9.20
2019-05-12T17:34:27.769Z,2.57
2019-05-12T17:37:19.101Z,4.10
2019-05-12T17:40:15.502Z,4.27
2019-05-12T17:43:10.022Z,4.43
2019-05-12T17:46:01.291Z,1.83
2019-05-12T17:48:50.458Z,4.10
2019-05-12T17:51:42.275Z,3.90
2019-05-12T17:54:34.248Z,11.50
2019-05-12T17:57:25.842Z,6.53
2019-05-12T18:00:18.795Z,3.20
2019-05-12T18:03:20.541Z,2.83
2019-05-12T18:06:04.144Z,7.50
2019-05-12T18:08:55.905Z,6.40
2019-05-12T18:11:54.284Z,5.50
2019-05-12T18:14:46.830Z,4.87
2019-05-12T18:17:39.059Z,5.43
2019-05-12T18:20:31.264Z,5.63
2019-05-12T18:23:28.326Z,6.73
2019-05-12T18:26:16.091Z,5.00
2019-05-12T18:29:07.727Z,2.60
2019-05-12T18:31:59.568Z,6.27
2019-05-12T18:34:53.794Z,12.03
2019-05-12T18:37:44.245Z,4.30
2019-05-12T18:40:37.317Z,4.00
2019-05-12T18:43:28.651Z,7.83
2019-05-12T18:46:20.049Z,3.47
2019-05-12T18:49:12.743Z,5.30
2019-05-12T18:52:04.423Z,2.50
2019-05-12T18:54:57.125Z,2.73
2019-05-12T18:57:50.962Z,3.17
2019-05-12T19:00:43.680Z,3.63
2019-05-12T19:03:46.853Z,5.87
2019-05-12T19:06:28.120Z,11.40
2019-05-12T19:09:20.082Z,3.27
2019-05-12T19:12:19.611Z,3.97
2019-05-12T19:15:10.275Z,2.80
2019-05-12T19:17:59.602Z,7.07
2019-05-12T19:20:54.230Z,7.67
2019-05-12T19:23:45.189Z,6.87
2019-05-12T19:26:38.422Z,4.07
2019-05-12T19:29:35.133Z,6.00
2019-05-12T19:32:28.084Z,7.17
2019-05-12T19:35:20.218Z,5.73
2019-05-12T19:38:08.966Z,7.20
2019-05-12T19:41:00.983Z,7.93
2019-05-12T19:43:53.549Z,4.97
2019-05-12T19:46:49.367Z,10.10
2019-05-12T19:49:47.632Z,8.83
2019-05-12T19:52:31.532Z,5.77
2019-05-12T19:55:24.118Z,8.70
2019-05-12T19:58:15.909Z,5.17
2019-05-12T20:01:07.394Z,4.40
2019-05-12T20:03:58.727Z,9.87
2019-05-12T20:06:50.299Z,7.37
2019-05-12T20:09:48.403Z,10.63
2019-05-12T20:12:35.287Z,6.83
2019-05-12T20:15:30.141Z,3.27
2019-05-12T20:18:19.535Z,6.27
2019-05-12T20:21:13.613Z,8.40
2019-05-12T20:24:04.940Z,5.50
2019-05-12T20:26:56.300Z,8.43
2019-05-12T20:29:47.942Z,6.47
2019-05-12T20:32:39.245Z,5.57
2019-05-12T20:35:33.361Z,9.53
2019-05-12T20:38:33.742Z,8.23
2019-05-12T20:41:22.673Z,6.70
2019-05-12T20:44:17.136Z,6.93
2019-05-12T20:47:06.401Z,6.60
2019-05-12T20:49:56.687Z,4.27
2019-05-12T20:52:53.419Z,7.40
2019-05-12T20:55:44.218Z,8.47
2019-05-12T20:58:41.002Z,7.53
2019-05-12T21:01:30.239Z,9.43
2019-05-12T21:04:30.807Z,5.23
2019-05-12T21:07:21.901Z,8.47
2019-05-12T21:10:08.855Z,8.70
2019-05-12T21:13:00.193Z,5.33
2019-05-12T21:15:54.031Z,9.13
2019-05-12T21:18:50.485Z,5.50
2019-05-12T21:21:38.641Z,7.50
2019-05-12T21:24:36.044Z,9.73
2019-05-12T21:27:23.665Z,4.47
2019-05-12T21:30:15.578Z,7.50
2019-05-12T21:33:06.890Z,7.10
2019-05-12T21:35:58.257Z,17.43
2019-05-12T21:38:49.763Z,8.50
2019-05-12T21:41:50.493Z,11.67
2019-05-12T21:44:35.379Z,9.67
2019-05-12T21:47:27.341Z,7.83
2019-05-12T21:50:24.314Z,9.80
2019-05-12T21:53:17.465Z,7.20
2019-05-12T21:56:05.658Z,6.93
2019-05-12T21:58:58.302Z,10.17
2019-05-12T22:01:50.547Z,6.03
2019-05-12T22:04:43.540Z,8.63
2019-05-12T22:07:39.741Z,6.13
2019-05-12T22:10:30.815Z,13.00
2019-05-12T22:13:21.493Z,6.70
2019-05-12T22:16:14.204Z,8.77
2019-05-12T22:19:06.817Z,7.83
2019-05-12T22:22:00.897Z,7.43
2019-05-12T22:24:53.631Z,6.70
2019-05-12T22:27:44.352Z,6.17
2019-05-12T22:30:35.684Z,11.10
2019-05-12T22:33:27.145Z,12.73
2019-05-12T22:36:25.627Z,11.13
2019-05-12T22:39:14.158Z,6.57
2019-05-12T22:42:04.893Z,8.23
2019-05-12T22:45:01.618Z,6.50
2019-05-12T22:47:49.135Z,4.57
2019-05-12T22:50:43.482Z,8.97
2019-05-12T22:53:35.356Z,6.30
2019-05-12T22:56:26.666Z,5.90
2019-05-12T22:59:17.905Z,9.20
2019-05-12T23:02:09.154Z,9.00
2019-05-12T23:05:00.473Z,6.07
2019-05-12T23:07:54.469Z,7.57
2019-05-12T23:10:51.271Z,7.20
2019-05-12T23:13:42.684Z,12.27
2019-05-12T23:16:33.581Z,8.37
2019-05-12T23:19:25.211Z,13.40
2019-05-12T23:22:16.559Z,6.43
2019-05-12T23:25:11.385Z,8.43
2019-05-12T23:28:08.529Z,8.97
2019-05-12T23:30:54.705Z,6.50
2019-05-12T23:33:46.332Z,8.77
2019-05-12T23:36:39.309Z,10.03
2019-05-12T23:39:32.409Z,14.00
2019-05-12T23:42:24.458Z,12.37
2019-05-12T23:45:16.125Z,14.53
2019-05-12T23:48:07.609Z,10.93
2019-05-12T23:50:59.387Z,11.27
2019-05-12T23:53:51.081Z,9.20
2019-05-12T23:56:44.431Z,7.50
2019-05-12T23:59:37.102Z,9.60
